sensor_id;sensor_type;location;lat;lon;timestamp;P1;durP1;ratioP1;P2;durP2;ratioP2
17864;SDS011;9058;52.018;4.202;2023-09-08T00:02:00;23.35;;;20.85;;
17864;SDS011;9058;52.018;4.202;2023-09-08T00:04:27;23.77;;;21.38;;
17864;SDS011;9058;52.018;4.202;2023-09-08T00:06:54;23.05;;;20.58;;
17864;SDS011;9058;52.018;4.202;2023-09-08T00:09:22;23.08;;;20.67;;
17864;SDS011;9058;52.018;4.202;2023-09-08T00:11:49;22.60;;;20.42;;
17864;SDS011;9058;52.018;4.202;2023-09-08T00:14:15;23.60;;;21.20;;
17864;SDS011;9058;52.018;4.202;2023-09-08T00:16:42;22.95;;;20.55;;
17864;SDS011;9058;52.018;4.202;2023-09-08T00:19:08;23.40;;;20.92;;
17864;SDS011;9058;52.018;4.202;2023-09-08T00:21:35;23.67;;;20.80;;
17864;SDS011;9058;52.018;4.202;2023-09-08T00:24:02;24.25;;;21.63;;
17864;SDS011;9058;52.018;4.202;2023-09-08T00:26:30;23.10;;;20.90;;
17864;SDS011;9058;52.018;4.202;2023-09-08T00:28:56;23.10;;;20.80;;
17864;SDS011;9058;52.018;4.202;2023-09-08T00:31:23;23.70;;;21.30;;
17864;SDS011;9058;52.018;4.202;2023-09-08T00:33:50;24.33;;;21.00;;
17864;SDS011;9058;52.018;4.202;2023-09-08T00:36:16;24.58;;;21.98;;
17864;SDS011;9058;52.018;4.202;2023-09-08T00:38:44;23.75;;;21.35;;
17864;SDS011;9058;52.018;4.202;2023-09-08T00:41:11;25.17;;;22.58;;
17864;SDS011;9058;52.018;4.202;2023-09-08T00:43:39;24.85;;;22.35;;
17864;SDS011;9058;52.018;4.202;2023-09-08T00:46:06;27.50;;;23.30;;
17864;SDS011;9058;52.018;4.202;2023-09-08T00:48:33;24.52;;;21.55;;
17864;SDS011;9058;52.018;4.202;2023-09-08T00:51:00;25.50;;;22.33;;
17864;SDS011;9058;52.018;4.202;2023-09-08T00:53:30;25.05;;;22.40;;
17864;SDS011;9058;52.018;4.202;2023-09-08T00:55:57;25.77;;;21.30;;
17864;SDS011;9058;52.018;4.202;2023-09-08T00:58:25;25.85;;;23.33;;
17864;SDS011;9058;52.018;4.202;2023-09-08T01:00:53;26.20;;;23.45;;
17864;SDS011;9058;52.018;4.202;2023-09-08T01:03:22;28.88;;;25.17;;
17864;SDS011;9058;52.018;4.202;2023-09-08T01:05:49;26.30;;;23.38;;
17864;SDS011;9058;52.018;4.202;2023-09-08T01:08:16;26.05;;;22.55;;
17864;SDS011;9058;52.018;4.202;2023-09-08T01:10:44;26.33;;;23.42;;
17864;SDS011;9058;52.018;4.202;2023-09-08T01:13:11;27.38;;;24.60;;
17864;SDS011;9058;52.018;4.202;2023-09-08T01:15:37;25.75;;;22.92;;
17864;SDS011;9058;52.018;4.202;2023-09-08T01:18:06;28.15;;;23.65;;
17864;SDS011;9058;52.018;4.202;2023-09-08T01:20:35;26.80;;;23.90;;
17864;SDS011;9058;52.018;4.202;2023-09-08T01:23:11;29.50;;;24.23;;
17864;SDS011;9058;52.018;4.202;2023-09-08T01:25:45;27.80;;;24.40;;
17864;SDS011;9058;52.018;4.202;2023-09-08T01:28:13;27.73;;;24.90;;
17864;SDS011;9058;52.018;4.202;2023-09-08T01:30:40;27.73;;;24.77;;
17864;SDS011;9058;52.018;4.202;2023-09-08T01:33:06;28.17;;;25.27;;
17864;SDS011;9058;52.018;4.202;2023-09-08T01:35:34;26.80;;;24.08;;
17864;SDS011;9058;52.018;4.202;2023-09-08T01:38:01;28.80;;;25.80;;
17864;SDS011;9058;52.018;4.202;2023-09-08T01:40:28;28.55;;;25.70;;
17864;SDS011;9058;52.018;4.202;2023-09-08T01:42:56;28.83;;;25.83;;
17864;SDS011;9058;52.018;4.202;2023-09-08T01:45:22;29.45;;;25.55;;
17864;SDS011;9058;52.018;4.202;2023-09-08T01:47:48;28.58;;;25.60;;
17864;SDS011;9058;52.018;4.202;2023-09-08T01:50:15;30.38;;;26.73;;
17864;SDS011;9058;52.018;4.202;2023-09-08T01:52:46;29.58;;;26.58;;
17864;SDS011;9058;52.018;4.202;2023-09-08T01:55:13;30.65;;;27.42;;
17864;SDS011;9058;52.018;4.202;2023-09-08T01:57:41;31.83;;;28.40;;
17864;SDS011;9058;52.018;4.202;2023-09-08T02:00:09;31.00;;;27.77;;
17864;SDS011;9058;52.018;4.202;2023-09-08T02:02:36;30.75;;;27.60;;
17864;SDS011;9058;52.018;4.202;2023-09-08T02:05:02;32.13;;;28.70;;
17864;SDS011;9058;52.018;4.202;2023-09-08T02:07:29;30.83;;;27.45;;
17864;SDS011;9058;52.018;4.202;2023-09-08T02:09:56;30.83;;;27.65;;
17864;SDS011;9058;52.018;4.202;2023-09-08T02:12:23;31.70;;;28.48;;
17864;SDS011;9058;52.018;4.202;2023-09-08T02:14:49;30.10;;;26.95;;
17864;SDS011;9058;52.018;4.202;2023-09-08T02:17:18;32.75;;;29.42;;
17864;SDS011;9058;52.018;4.202;2023-09-08T02:19:45;37.03;;;29.67;;
17864;SDS011;9058;52.018;4.202;2023-09-08T02:22:12;31.52;;;28.23;;
17864;SDS011;9058;52.018;4.202;2023-09-08T02:24:39;33.47;;;30.10;;
17864;SDS011;9058;52.018;4.202;2023-09-08T02:27:07;33.88;;;30.10;;
17864;SDS011;9058;52.018;4.202;2023-09-08T02:29:33;34.70;;;30.90;;
17864;SDS011;9058;52.018;4.202;2023-09-08T02:32:00;34.00;;;30.38;;
17864;SDS011;9058;52.018;4.202;2023-09-08T02:34:28;32.80;;;29.30;;
17864;SDS011;9058;52.018;4.202;2023-09-08T02:36:54;34.33;;;30.83;;
17864;SDS011;9058;52.018;4.202;2023-09-08T02:39:20;34.47;;;30.63;;
17864;SDS011;9058;52.018;4.202;2023-09-08T02:41:48;34.67;;;29.90;;
17864;SDS011;9058;52.018;4.202;2023-09-08T02:44:14;34.08;;;30.30;;
17864;SDS011;9058;52.018;4.202;2023-09-08T02:46:41;35.58;;;31.92;;
17864;SDS011;9058;52.018;4.202;2023-09-08T02:49:07;35.97;;;32.13;;
17864;SDS011;9058;52.018;4.202;2023-09-08T02:51:35;36.80;;;32.90;;
17864;SDS011;9058;52.018;4.202;2023-09-08T02:54:02;37.92;;;33.83;;
17864;SDS011;9058;52.018;4.202;2023-09-08T02:56:29;36.80;;;32.75;;
17864;SDS011;9058;52.018;4.202;2023-09-08T02:58:56;37.78;;;32.13;;
17864;SDS011;9058;52.018;4.202;2023-09-08T03:01:23;36.78;;;32.75;;
17864;SDS011;9058;52.018;4.202;2023-09-08T03:03:50;36.25;;;32.35;;
17864;SDS011;9058;52.018;4.202;2023-09-08T03:06:18;37.67;;;33.42;;
17864;SDS011;9058;52.018;4.202;2023-09-08T03:08:47;38.83;;;33.03;;
17864;SDS011;9058;52.018;4.202;2023-09-08T03:11:13;36.75;;;32.75;;
17864;SDS011;9058;52.018;4.202;2023-09-08T03:13:39;35.30;;;31.50;;
17864;SDS011;9058;52.018;4.202;2023-09-08T03:16:07;37.10;;;33.22;;
17864;SDS011;9058;52.018;4.202;2023-09-08T03:18:33;40.22;;;32.92;;
17864;SDS011;9058;52.018;4.202;2023-09-08T03:21:01;36.55;;;32.53;;
17864;SDS011;9058;52.018;4.202;2023-09-08T03:23:41;36.42;;;32.47;;
17864;SDS011;9058;52.018;4.202;2023-09-08T03:26:09;36.03;;;31.45;;
17864;SDS011;9058;52.018;4.202;2023-09-08T03:28:36;36.25;;;32.40;;
17864;SDS011;9058;52.018;4.202;2023-09-08T03:31:03;39.58;;;31.42;;
17864;SDS011;9058;52.018;4.202;2023-09-08T03:33:30;36.05;;;30.88;;
17864;SDS011;9058;52.018;4.202;2023-09-08T03:35:58;39.17;;;31.83;;
17864;SDS011;9058;52.018;4.202;2023-09-08T03:38:24;34.92;;;31.23;;
17864;SDS011;9058;52.018;4.202;2023-09-08T03:40:50;34.70;;;30.98;;
17864;SDS011;9058;52.018;4.202;2023-09-08T03:43:19;36.38;;;32.17;;
17864;SDS011;9058;52.018;4.202;2023-09-08T03:45:46;33.60;;;30.10;;
17864;SDS011;9058;52.018;4.202;2023-09-08T03:48:13;35.75;;;31.88;;
17864;SDS011;9058;52.018;4.202;2023-09-08T03:50:40;36.25;;;32.20;;
17864;SDS011;9058;52.018;4.202;2023-09-08T03:53:10;37.53;;;32.10;;
17864;SDS011;9058;52.018;4.202;2023-09-08T03:55:37;35.72;;;31.90;;
17864;SDS011;9058;52.018;4.202;2023-09-08T03:58:03;36.55;;;32.75;;
17864;SDS011;9058;52.018;4.202;2023-09-08T04:00:31;37.55;;;33.28;;
17864;SDS011;9058;52.018;4.202;2023-09-08T04:02:57;35.65;;;32.00;;
17864;SDS011;9058;52.018;4.202;2023-09-08T04:05:25;39.80;;;32.55;;
17864;SDS011;9058;52.018;4.202;2023-09-08T04:07:51;35.92;;;32.13;;
17864;SDS011;9058;52.018;4.202;2023-09-08T04:10:17;35.17;;;31.48;;
17864;SDS011;9058;52.018;4.202;2023-09-08T04:12:44;36.95;;;33.05;;
17864;SDS011;9058;52.018;4.202;2023-09-08T04:15:10;35.15;;;30.85;;
17864;SDS011;9058;52.018;4.202;2023-09-08T04:17:39;36.53;;;32.63;;
17864;SDS011;9058;52.018;4.202;2023-09-08T04:20:05;35.72;;;31.98;;
17864;SDS011;9058;52.018;4.202;2023-09-08T04:22:32;36.30;;;32.45;;
17864;SDS011;9058;52.018;4.202;2023-09-08T04:25:00;34.75;;;30.58;;
17864;SDS011;9058;52.018;4.202;2023-09-08T04:27:26;35.10;;;31.40;;
17864;SDS011;9058;52.018;4.202;2023-09-08T04:29:53;34.60;;;31.00;;
17864;SDS011;9058;52.018;4.202;2023-09-08T04:32:19;35.72;;;31.85;;
17864;SDS011;9058;52.018;4.202;2023-09-08T04:34:48;35.03;;;31.27;;
17864;SDS011;9058;52.018;4.202;2023-09-08T04:37:15;35.30;;;31.65;;
17864;SDS011;9058;52.018;4.202;2023-09-08T04:39:41;34.67;;;30.88;;
17864;SDS011;9058;52.018;4.202;2023-09-08T04:42:09;35.78;;;31.25;;
17864;SDS011;9058;52.018;4.202;2023-09-08T04:44:35;35.28;;;31.55;;
17864;SDS011;9058;52.018;4.202;2023-09-08T04:47:01;34.90;;;31.10;;
17864;SDS011;9058;52.018;4.202;2023-09-08T04:49:28;33.58;;;29.92;;
17864;SDS011;9058;52.018;4.202;2023-09-08T04:51:56;35.67;;;31.75;;
17864;SDS011;9058;52.018;4.202;2023-09-08T04:54:22;37.75;;;32.03;;
17864;SDS011;9058;52.018;4.202;2023-09-08T04:56:51;34.58;;;30.92;;
17864;SDS011;9058;52.018;4.202;2023-09-08T04:59:18;32.90;;;29.42;;
17864;SDS011;9058;52.018;4.202;2023-09-08T05:01:44;33.40;;;29.45;;
17864;SDS011;9058;52.018;4.202;2023-09-08T05:04:11;33.78;;;30.10;;
17864;SDS011;9058;52.018;4.202;2023-09-08T05:06:37;33.15;;;29.58;;
17864;SDS011;9058;52.018;4.202;2023-09-08T05:09:06;32.83;;;29.05;;
17864;SDS011;9058;52.018;4.202;2023-09-08T05:11:32;39.58;;;31.35;;
17864;SDS011;9058;52.018;4.202;2023-09-08T05:13:59;34.85;;;29.33;;
17864;SDS011;9058;52.018;4.202;2023-09-08T05:16:25;36.67;;;32.03;;
17864;SDS011;9058;52.018;4.202;2023-09-08T05:19:02;33.20;;;29.63;;
17864;SDS011;9058;52.018;4.202;2023-09-08T05:21:28;33.65;;;30.15;;
17864;SDS011;9058;52.018;4.202;2023-09-08T05:23:55;33.65;;;30.13;;
17864;SDS011;9058;52.018;4.202;2023-09-08T05:26:23;35.25;;;29.55;;
17864;SDS011;9058;52.018;4.202;2023-09-08T05:28:49;34.25;;;30.65;;
17864;SDS011;9058;52.018;4.202;2023-09-08T05:31:15;35.75;;;30.70;;
17864;SDS011;9058;52.018;4.202;2023-09-08T05:33:42;33.90;;;30.33;;
17864;SDS011;9058;52.018;4.202;2023-09-08T05:36:08;33.92;;;30.23;;
17864;SDS011;9058;52.018;4.202;2023-09-08T05:38:34;32.05;;;28.48;;
17864;SDS011;9058;52.018;4.202;2023-09-08T05:41:01;32.45;;;28.90;;
17864;SDS011;9058;52.018;4.202;2023-09-08T05:43:29;33.92;;;29.77;;
17864;SDS011;9058;52.018;4.202;2023-09-08T05:45:55;32.83;;;28.80;;
17864;SDS011;9058;52.018;4.202;2023-09-08T05:48:21;30.58;;;27.50;;
17864;SDS011;9058;52.018;4.202;2023-09-08T05:50:48;31.27;;;27.58;;
17864;SDS011;9058;52.018;4.202;2023-09-08T05:53:14;29.17;;;26.08;;
17864;SDS011;9058;52.018;4.202;2023-09-08T05:55:40;29.63;;;26.48;;
17864;SDS011;9058;52.018;4.202;2023-09-08T05:58:08;32.30;;;25.80;;
17864;SDS011;9058;52.018;4.202;2023-09-08T06:00:35;28.63;;;24.30;;
17864;SDS011;9058;52.018;4.202;2023-09-08T06:03:02;26.80;;;23.65;;
17864;SDS011;9058;52.018;4.202;2023-09-08T06:05:28;28.42;;;24.45;;
17864;SDS011;9058;52.018;4.202;2023-09-08T06:07:55;27.30;;;23.75;;
17864;SDS011;9058;52.018;4.202;2023-09-08T06:10:21;25.77;;;22.75;;
17864;SDS011;9058;52.018;4.202;2023-09-08T06:12:48;24.63;;;22.27;;
17864;SDS011;9058;52.018;4.202;2023-09-08T06:15:15;24.17;;;21.73;;
17864;SDS011;9058;52.018;4.202;2023-09-08T06:17:43;24.02;;;20.25;;
17864;SDS011;9058;52.018;4.202;2023-09-08T06:20:11;23.85;;;21.20;;
17864;SDS011;9058;52.018;4.202;2023-09-08T06:22:38;26.35;;;21.48;;
17864;SDS011;9058;52.018;4.202;2023-09-08T06:25:04;25.77;;;20.92;;
17864;SDS011;9058;52.018;4.202;2023-09-08T06:27:31;23.30;;;20.63;;
17864;SDS011;9058;52.018;4.202;2023-09-08T06:29:57;26.77;;;22.83;;
17864;SDS011;9058;52.018;4.202;2023-09-08T06:32:23;23.65;;;21.35;;
17864;SDS011;9058;52.018;4.202;2023-09-08T06:34:51;26.27;;;22.58;;
17864;SDS011;9058;52.018;4.202;2023-09-08T06:37:18;28.75;;;22.77;;
17864;SDS011;9058;52.018;4.202;2023-09-08T06:39:44;24.27;;;21.77;;
17864;SDS011;9058;52.018;4.202;2023-09-08T06:42:10;24.75;;;21.63;;
17864;SDS011;9058;52.018;4.202;2023-09-08T06:44:37;25.98;;;21.20;;
17864;SDS011;9058;52.018;4.202;2023-09-08T06:47:03;25.88;;;23.00;;
17864;SDS011;9058;52.018;4.202;2023-09-08T06:49:31;25.20;;;22.52;;
17864;SDS011;9058;52.018;4.202;2023-09-08T06:52:00;24.30;;;21.70;;
17864;SDS011;9058;52.018;4.202;2023-09-08T06:54:27;25.20;;;22.25;;
17864;SDS011;9058;52.018;4.202;2023-09-08T06:56:53;25.50;;;21.08;;
17864;SDS011;9058;52.018;4.202;2023-09-08T06:59:19;24.27;;;21.73;;
17864;SDS011;9058;52.018;4.202;2023-09-08T07:01:46;26.55;;;22.70;;
17864;SDS011;9058;52.018;4.202;2023-09-08T07:04:12;24.77;;;22.17;;
17864;SDS011;9058;52.018;4.202;2023-09-08T07:06:39;24.67;;;22.08;;
17864;SDS011;9058;52.018;4.202;2023-09-08T07:09:08;23.75;;;21.20;;
17864;SDS011;9058;52.018;4.202;2023-09-08T07:11:34;23.88;;;21.48;;
17864;SDS011;9058;52.018;4.202;2023-09-08T07:14:01;25.65;;;23.05;;
17864;SDS011;9058;52.018;4.202;2023-09-08T07:16:27;25.92;;;23.25;;
17864;SDS011;9058;52.018;4.202;2023-09-08T07:18:54;24.70;;;22.10;;
17864;SDS011;9058;52.018;4.202;2023-09-08T07:21:20;25.30;;;22.75;;
17864;SDS011;9058;52.018;4.202;2023-09-08T07:23:46;24.73;;;22.15;;
17864;SDS011;9058;52.018;4.202;2023-09-08T07:26:14;24.48;;;21.77;;
17864;SDS011;9058;52.018;4.202;2023-09-08T07:28:41;27.15;;;23.88;;
17864;SDS011;9058;52.018;4.202;2023-09-08T07:31:08;24.67;;;22.08;;
17864;SDS011;9058;52.018;4.202;2023-09-08T07:33:35;24.88;;;22.48;;
17864;SDS011;9058;52.018;4.202;2023-09-08T07:36:03;25.13;;;22.35;;
17864;SDS011;9058;52.018;4.202;2023-09-08T07:38:31;27.55;;;22.88;;
17864;SDS011;9058;52.018;4.202;2023-09-08T07:40:57;25.45;;;22.33;;
17864;SDS011;9058;52.018;4.202;2023-09-08T07:43:27;25.55;;;22.75;;
17864;SDS011;9058;52.018;4.202;2023-09-08T07:45:53;24.52;;;22.13;;
17864;SDS011;9058;52.018;4.202;2023-09-08T07:48:20;26.50;;;22.02;;
17864;SDS011;9058;52.018;4.202;2023-09-08T07:50:46;24.00;;;21.60;;
17864;SDS011;9058;52.018;4.202;2023-09-08T07:53:12;22.20;;;19.92;;
17864;SDS011;9058;52.018;4.202;2023-09-08T07:55:40;24.45;;;21.98;;
17864;SDS011;9058;52.018;4.202;2023-09-08T07:58:07;23.05;;;20.67;;
17864;SDS011;9058;52.018;4.202;2023-09-08T08:00:35;22.90;;;20.50;;
17864;SDS011;9058;52.018;4.202;2023-09-08T08:03:01;20.90;;;18.83;;
17864;SDS011;9058;52.018;4.202;2023-09-08T08:05:29;20.95;;;18.83;;
17864;SDS011;9058;52.018;4.202;2023-09-08T08:07:55;20.95;;;18.10;;
17864;SDS011;9058;52.018;4.202;2023-09-08T08:10:21;20.40;;;18.17;;
17864;SDS011;9058;52.018;4.202;2023-09-08T08:12:48;19.45;;;17.45;;
17864;SDS011;9058;52.018;4.202;2023-09-08T08:15:14;20.02;;;17.92;;
17864;SDS011;9058;52.018;4.202;2023-09-08T08:17:42;21.17;;;19.08;;
17864;SDS011;9058;52.018;4.202;2023-09-08T08:20:11;19.23;;;17.17;;
17864;SDS011;9058;52.018;4.202;2023-09-08T08:22:42;19.33;;;16.35;;
17864;SDS011;9058;52.018;4.202;2023-09-08T08:25:09;19.40;;;17.60;;
17864;SDS011;9058;52.018;4.202;2023-09-08T08:27:36;16.75;;;14.82;;
17864;SDS011;9058;52.018;4.202;2023-09-08T08:30:02;17.67;;;15.70;;
17864;SDS011;9058;52.018;4.202;2023-09-08T08:32:29;15.60;;;13.70;;
17864;SDS011;9058;52.018;4.202;2023-09-08T08:34:57;21.25;;;14.57;;
17864;SDS011;9058;52.018;4.202;2023-09-08T08:37:23;15.23;;;13.63;;
17864;SDS011;9058;52.018;4.202;2023-09-08T08:39:50;14.80;;;13.07;;
17864;SDS011;9058;52.018;4.202;2023-09-08T08:42:17;20.95;;;13.73;;
17864;SDS011;9058;52.018;4.202;2023-09-08T08:44:47;16.10;;;11.95;;
17864;SDS011;9058;52.018;4.202;2023-09-08T08:47:14;18.80;;;11.40;;
17864;SDS011;9058;52.018;4.202;2023-09-08T08:49:42;15.38;;;12.80;;
17864;SDS011;9058;52.018;4.202;2023-09-08T08:52:13;12.18;;;11.02;;
17864;SDS011;9058;52.018;4.202;2023-09-08T08:54:39;16.38;;;11.48;;
17864;SDS011;9058;52.018;4.202;2023-09-08T08:57:06;14.68;;;10.95;;
17864;SDS011;9058;52.018;4.202;2023-09-08T08:59:33;11.73;;;9.93;;
17864;SDS011;9058;52.018;4.202;2023-09-08T09:01:59;14.43;;;10.60;;
17864;SDS011;9058;52.018;4.202;2023-09-08T09:04:26;9.88;;;8.73;;
17864;SDS011;9058;52.018;4.202;2023-09-08T09:06:52;11.20;;;9.13;;
17864;SDS011;9058;52.018;4.202;2023-09-08T09:09:20;11.18;;;9.10;;
17864;SDS011;9058;52.018;4.202;2023-09-08T09:11:47;12.80;;;9.23;;
17864;SDS011;9058;52.018;4.202;2023-09-08T09:14:13;11.48;;;9.05;;
17864;SDS011;9058;52.018;4.202;2023-09-08T09:16:39;10.77;;;8.90;;
17864;SDS011;9058;52.018;4.202;2023-09-08T09:19:06;10.45;;;7.82;;
17864;SDS011;9058;52.018;4.202;2023-09-08T09:21:41;7.75;;;7.05;;
17864;SDS011;9058;52.018;4.202;2023-09-08T09:24:07;9.60;;;7.65;;
17864;SDS011;9058;52.018;4.202;2023-09-08T09:26:35;10.20;;;8.23;;
17864;SDS011;9058;52.018;4.202;2023-09-08T09:29:01;8.68;;;7.88;;
17864;SDS011;9058;52.018;4.202;2023-09-08T09:31:28;10.60;;;8.48;;
17864;SDS011;9058;52.018;4.202;2023-09-08T09:34:01;9.20;;;6.88;;
17864;SDS011;9058;52.018;4.202;2023-09-08T09:36:28;9.00;;;7.28;;
17864;SDS011;9058;52.018;4.202;2023-09-08T09:38:57;10.40;;;7.13;;
17864;SDS011;9058;52.018;4.202;2023-09-08T09:41:24;9.15;;;6.40;;
17864;SDS011;9058;52.018;4.202;2023-09-08T09:43:52;7.47;;;6.78;;
17864;SDS011;9058;52.018;4.202;2023-09-08T09:46:19;7.38;;;6.20;;
17864;SDS011;9058;52.018;4.202;2023-09-08T09:48:49;7.53;;;6.80;;
17864;SDS011;9058;52.018;4.202;2023-09-08T09:51:17;8.55;;;7.55;;
17864;SDS011;9058;52.018;4.202;2023-09-08T09:53:44;11.60;;;8.18;;
17864;SDS011;9058;52.018;4.202;2023-09-08T09:56:13;7.97;;;7.15;;
17864;SDS011;9058;52.018;4.202;2023-09-08T09:58:39;8.02;;;7.03;;
17864;SDS011;9058;52.018;4.202;2023-09-08T10:01:08;9.80;;;7.75;;
17864;SDS011;9058;52.018;4.202;2023-09-08T10:03:36;10.85;;;9.85;;
17864;SDS011;9058;52.018;4.202;2023-09-08T10:06:04;11.15;;;9.77;;
17864;SDS011;9058;52.018;4.202;2023-09-08T10:08:31;9.73;;;8.55;;
17864;SDS011;9058;52.018;4.202;2023-09-08T10:11:01;8.60;;;7.53;;
17864;SDS011;9058;52.018;4.202;2023-09-08T10:13:31;9.63;;;8.52;;
17864;SDS011;9058;52.018;4.202;2023-09-08T10:15:59;9.68;;;7.07;;
17864;SDS011;9058;52.018;4.202;2023-09-08T10:18:28;11.02;;;8.20;;
17864;SDS011;9058;52.018;4.202;2023-09-08T10:20:55;14.35;;;8.38;;
17864;SDS011;9058;52.018;4.202;2023-09-08T10:23:27;12.60;;;8.23;;
17864;SDS011;9058;52.018;4.202;2023-09-08T10:25:56;10.25;;;7.50;;
17864;SDS011;9058;52.018;4.202;2023-09-08T10:28:24;10.32;;;7.65;;
17864;SDS011;9058;52.018;4.202;2023-09-08T10:30:51;10.95;;;6.82;;
17864;SDS011;9058;52.018;4.202;2023-09-08T10:33:18;10.60;;;7.22;;
17864;SDS011;9058;52.018;4.202;2023-09-08T10:35:47;9.57;;;6.60;;
17864;SDS011;9058;52.018;4.202;2023-09-08T10:38:23;8.38;;;6.13;;
17864;SDS011;9058;52.018;4.202;2023-09-08T10:40:50;11.32;;;8.23;;
17864;SDS011;9058;52.018;4.202;2023-09-08T10:43:17;12.30;;;7.90;;
17864;SDS011;9058;52.018;4.202;2023-09-08T10:45:45;9.40;;;7.43;;
17864;SDS011;9058;52.018;4.202;2023-09-08T10:48:11;12.68;;;7.57;;
17864;SDS011;9058;52.018;4.202;2023-09-08T10:50:39;9.93;;;7.30;;
17864;SDS011;9058;52.018;4.202;2023-09-08T10:53:08;10.52;;;7.57;;
17864;SDS011;9058;52.018;4.202;2023-09-08T10:55:37;10.10;;;7.00;;
17864;SDS011;9058;52.018;4.202;2023-09-08T10:58:05;8.50;;;7.07;;
17864;SDS011;9058;52.018;4.202;2023-09-08T11:00:43;6.95;;;6.13;;
17864;SDS011;9058;52.018;4.202;2023-09-08T11:03:09;14.50;;;7.82;;
17864;SDS011;9058;52.018;4.202;2023-09-08T11:05:36;10.60;;;8.02;;
17864;SDS011;9058;52.018;4.202;2023-09-08T11:08:02;9.60;;;7.38;;
17864;SDS011;9058;52.018;4.202;2023-09-08T11:10:30;8.35;;;6.82;;
17864;SDS011;9058;52.018;4.202;2023-09-08T11:12:58;9.32;;;7.45;;
17864;SDS011;9058;52.018;4.202;2023-09-08T11:15:25;13.02;;;7.75;;
17864;SDS011;9058;52.018;4.202;2023-09-08T11:17:51;13.27;;;7.90;;
17864;SDS011;9058;52.018;4.202;2023-09-08T11:20:25;7.82;;;6.95;;
17864;SDS011;9058;52.018;4.202;2023-09-08T11:22:52;8.07;;;6.55;;
17864;SDS011;9058;52.018;4.202;2023-09-08T11:25:19;9.35;;;6.90;;
17864;SDS011;9058;52.018;4.202;2023-09-08T11:27:48;7.25;;;6.55;;
17864;SDS011;9058;52.018;4.202;2023-09-08T11:30:15;7.50;;;6.20;;
17864;SDS011;9058;52.018;4.202;2023-09-08T11:32:42;10.52;;;6.80;;
17864;SDS011;9058;52.018;4.202;2023-09-08T11:35:09;12.10;;;7.97;;
17864;SDS011;9058;52.018;4.202;2023-09-08T11:37:36;13.18;;;6.35;;
17864;SDS011;9058;52.018;4.202;2023-09-08T11:40:04;7.28;;;5.95;;
17864;SDS011;9058;52.018;4.202;2023-09-08T11:42:37;9.18;;;6.90;;
17864;SDS011;9058;52.018;4.202;2023-09-08T11:45:10;19.63;;;9.63;;
17864;SDS011;9058;52.018;4.202;2023-09-08T11:47:39;10.50;;;6.80;;
17864;SDS011;9058;52.018;4.202;2023-09-08T11:50:05;8.75;;;7.13;;
17864;SDS011;9058;52.018;4.202;2023-09-08T11:52:32;10.13;;;6.68;;
17864;SDS011;9058;52.018;4.202;2023-09-08T11:54:58;9.30;;;7.13;;
17864;SDS011;9058;52.018;4.202;2023-09-08T11:57:25;19.52;;;10.63;;
17864;SDS011;9058;52.018;4.202;2023-09-08T11:59:51;25.77;;;12.43;;
17864;SDS011;9058;52.018;4.202;2023-09-08T12:02:19;21.02;;;9.95;;
17864;SDS011;9058;52.018;4.202;2023-09-08T12:04:46;11.20;;;7.60;;
17864;SDS011;9058;52.018;4.202;2023-09-08T12:07:12;16.83;;;9.90;;
17864;SDS011;9058;52.018;4.202;2023-09-08T12:09:39;13.98;;;8.23;;
17864;SDS011;9058;52.018;4.202;2023-09-08T12:12:08;15.05;;;9.25;;
17864;SDS011;9058;52.018;4.202;2023-09-08T12:14:39;18.00;;;11.45;;
17864;SDS011;9058;52.018;4.202;2023-09-08T12:17:06;14.18;;;10.60;;
17864;SDS011;9058;52.018;4.202;2023-09-08T12:19:34;16.50;;;10.75;;
17864;SDS011;9058;52.018;4.202;2023-09-08T12:22:02;38.47;;;18.60;;
17864;SDS011;9058;52.018;4.202;2023-09-08T12:27:14;16.55;;;10.88;;
17864;SDS011;9058;52.018;4.202;2023-09-08T12:29:41;12.40;;;9.40;;
17864;SDS011;9058;52.018;4.202;2023-09-08T12:32:07;20.85;;;11.57;;
17864;SDS011;9058;52.018;4.202;2023-09-08T12:34:36;15.48;;;10.93;;
17864;SDS011;9058;52.018;4.202;2023-09-08T12:37:03;13.80;;;9.88;;
17864;SDS011;9058;52.018;4.202;2023-09-08T12:39:32;18.92;;;12.88;;
17864;SDS011;9058;52.018;4.202;2023-09-08T12:41:59;30.02;;;14.80;;
17864;SDS011;9058;52.018;4.202;2023-09-08T12:44:26;45.75;;;20.27;;
17864;SDS011;9058;52.018;4.202;2023-09-08T12:46:52;27.23;;;15.57;;
17864;SDS011;9058;52.018;4.202;2023-09-08T12:49:19;13.57;;;11.43;;
17864;SDS011;9058;52.018;4.202;2023-09-08T12:51:47;14.77;;;10.82;;
17864;SDS011;9058;52.018;4.202;2023-09-08T12:54:13;17.60;;;13.10;;
17864;SDS011;9058;52.018;4.202;2023-09-08T12:56:40;23.40;;;14.20;;
17864;SDS011;9058;52.018;4.202;2023-09-08T12:59:06;16.30;;;12.75;;
17864;SDS011;9058;52.018;4.202;2023-09-08T13:01:32;19.05;;;14.45;;
17864;SDS011;9058;52.018;4.202;2023-09-08T13:03:59;42.63;;;21.45;;
17864;SDS011;9058;52.018;4.202;2023-09-08T13:06:26;19.83;;;15.77;;
17864;SDS011;9058;52.018;4.202;2023-09-08T13:08:54;25.48;;;17.10;;
17864;SDS011;9058;52.018;4.202;2023-09-08T13:11:21;23.63;;;16.75;;
17864;SDS011;9058;52.018;4.202;2023-09-08T13:13:47;18.52;;;15.20;;
17864;SDS011;9058;52.018;4.202;2023-09-08T13:16:13;31.50;;;19.73;;
17864;SDS011;9058;52.018;4.202;2023-09-08T13:18:40;21.92;;;17.05;;
17864;SDS011;9058;52.018;4.202;2023-09-08T13:21:06;25.83;;;17.27;;
17864;SDS011;9058;52.018;4.202;2023-09-08T13:23:33;19.65;;;16.48;;
17864;SDS011;9058;52.018;4.202;2023-09-08T13:26:01;20.83;;;15.18;;
17864;SDS011;9058;52.018;4.202;2023-09-08T13:28:27;19.88;;;16.50;;
17864;SDS011;9058;52.018;4.202;2023-09-08T13:30:54;20.58;;;18.02;;
17864;SDS011;9058;52.018;4.202;2023-09-08T13:33:21;34.97;;;22.75;;
17864;SDS011;9058;52.018;4.202;2023-09-08T13:35:47;21.45;;;17.58;;
17864;SDS011;9058;52.018;4.202;2023-09-08T13:38:13;22.35;;;20.02;;
17864;SDS011;9058;52.018;4.202;2023-09-08T13:40:40;24.77;;;21.63;;
17864;SDS011;9058;52.018;4.202;2023-09-08T13:43:08;46.78;;;33.10;;
17864;SDS011;9058;52.018;4.202;2023-09-08T13:45:36;35.17;;;28.17;;
17864;SDS011;9058;52.018;4.202;2023-09-08T13:48:03;54.55;;;32.30;;
17864;SDS011;9058;52.018;4.202;2023-09-08T13:50:31;36.15;;;28.65;;
17864;SDS011;9058;52.018;4.202;2023-09-08T13:52:57;28.42;;;24.13;;
17864;SDS011;9058;52.018;4.202;2023-09-08T13:55:24;35.83;;;28.75;;
17864;SDS011;9058;52.018;4.202;2023-09-08T13:57:50;40.60;;;29.30;;
17864;SDS011;9058;52.018;4.202;2023-09-08T14:00:18;32.45;;;26.30;;
17864;SDS011;9058;52.018;4.202;2023-09-08T14:02:44;35.35;;;28.95;;
17864;SDS011;9058;52.018;4.202;2023-09-08T14:05:11;51.00;;;33.17;;
17864;SDS011;9058;52.018;4.202;2023-09-08T14:07:37;43.30;;;32.35;;
17864;SDS011;9058;52.018;4.202;2023-09-08T14:10:04;43.03;;;30.95;;
17864;SDS011;9058;52.018;4.202;2023-09-08T14:12:32;34.63;;;29.85;;
17864;SDS011;9058;52.018;4.202;2023-09-08T14:14:59;45.97;;;31.77;;
17864;SDS011;9058;52.018;4.202;2023-09-08T14:17:26;44.13;;;33.03;;
17864;SDS011;9058;52.018;4.202;2023-09-08T14:19:53;35.25;;;30.13;;
17864;SDS011;9058;52.018;4.202;2023-09-08T14:22:19;32.78;;;29.40;;
17864;SDS011;9058;52.018;4.202;2023-09-08T14:24:45;35.10;;;31.30;;
17864;SDS011;9058;52.018;4.202;2023-09-08T14:27:12;37.63;;;31.45;;
17864;SDS011;9058;52.018;4.202;2023-09-08T14:29:38;42.40;;;32.85;;
17864;SDS011;9058;52.018;4.202;2023-09-08T14:32:05;58.38;;;39.35;;
17864;SDS011;9058;52.018;4.202;2023-09-08T14:34:33;48.55;;;36.72;;
17864;SDS011;9058;52.018;4.202;2023-09-08T14:37:00;46.58;;;37.13;;
17864;SDS011;9058;52.018;4.202;2023-09-08T14:39:27;47.50;;;36.53;;
17864;SDS011;9058;52.018;4.202;2023-09-08T14:41:54;38.78;;;34.60;;